sensor_id;sensor_type;location;lat;lon;timestamp;P1;durP1;ratioP1;P2;durP2;ratioP2
46597;SDS011;32318;48.858;8.252;2022-12-20T00:03:49;73.93;;;27.13;;
46597;SDS011;32318;48.858;8.252;2022-12-20T00:11:51;71.88;;;27.98;;
46597;SDS011;32318;48.858;8.252;2022-12-20T00:19:51;67.15;;;27.80;;
46597;SDS011;32318;48.858;8.252;2022-12-20T00:27:51;69.75;;;28.60;;
46597;SDS011;32318;48.858;8.252;2022-12-20T00:35:53;67.18;;;27.90;;
46597;SDS011;32318;48.858;8.252;2022-12-20T00:43:55;63.83;;;26.25;;
46597;SDS011;32318;48.858;8.252;2022-12-20T00:51:55;62.53;;;26.23;;
46597;SDS011;32318;48.858;8.252;2022-12-20T00:59:56;71.80;;;27.55;;
46597;SDS011;32318;48.858;8.252;2022-12-20T01:07:56;65.18;;;26.50;;
46597;SDS011;32318;48.858;8.252;2022-12-20T01:16:02;68.50;;;26.40;;
46597;SDS011;32318;48.858;8.252;2022-12-20T01:24:07;58.55;;;27.08;;
46597;SDS011;32318;48.858;8.252;2022-12-20T01:32:07;60.67;;;25.15;;
46597;SDS011;32318;48.858;8.252;2022-12-20T01:40:08;58.10;;;25.95;;
46597;SDS011;32318;48.858;8.252;2022-12-20T01:48:09;62.90;;;26.17;;
46597;SDS011;32318;48.858;8.252;2022-12-20T01:56:10;63.60;;;25.05;;
46597;SDS011;32318;48.858;8.252;2022-12-20T02:04:11;58.15;;;25.23;;
46597;SDS011;32318;48.858;8.252;2022-12-20T02:12:16;62.83;;;26.10;;
46597;SDS011;32318;48.858;8.252;2022-12-20T02:36:48;64.25;;;26.40;;
46597;SDS011;32318;48.858;8.252;2022-12-20T02:45:06;49.38;;;24.13;;
46597;SDS011;32318;48.858;8.252;2022-12-20T02:53:14;61.03;;;24.98;;
46597;SDS011;32318;48.858;8.252;2022-12-20T03:01:20;65.00;;;25.88;;
46597;SDS011;32318;48.858;8.252;2022-12-20T03:09:26;58.65;;;24.83;;
46597;SDS011;32318;48.858;8.252;2022-12-20T03:17:27;57.58;;;25.67;;
46597;SDS011;32318;48.858;8.252;2022-12-20T03:25:27;65.70;;;26.50;;
46597;SDS011;32318;48.858;8.252;2022-12-20T03:33:27;68.20;;;24.42;;
46597;SDS011;32318;48.858;8.252;2022-12-20T03:41:28;64.03;;;26.20;;
46597;SDS011;32318;48.858;8.252;2022-12-20T03:49:28;58.00;;;23.80;;
46597;SDS011;32318;48.858;8.252;2022-12-20T03:57:28;64.78;;;26.52;;
46597;SDS011;32318;48.858;8.252;2022-12-20T04:05:29;50.65;;;22.05;;
46597;SDS011;32318;48.858;8.252;2022-12-20T04:13:29;48.75;;;21.63;;
46597;SDS011;32318;48.858;8.252;2022-12-20T04:21:31;49.92;;;21.67;;
46597;SDS011;32318;48.858;8.252;2022-12-20T04:29:32;40.05;;;17.83;;
46597;SDS011;32318;48.858;8.252;2022-12-20T04:37:33;40.38;;;16.17;;
46597;SDS011;32318;48.858;8.252;2022-12-20T04:45:33;29.27;;;14.25;;
46597;SDS011;32318;48.858;8.252;2022-12-20T04:53:33;31.20;;;14.02;;
46597;SDS011;32318;48.858;8.252;2022-12-20T05:01:49;40.57;;;13.13;;
46597;SDS011;32318;48.858;8.252;2022-12-20T05:09:49;25.10;;;11.30;;
46597;SDS011;32318;48.858;8.252;2022-12-20T05:17:49;36.05;;;14.40;;
46597;SDS011;32318;48.858;8.252;2022-12-20T05:25:50;28.90;;;12.40;;
46597;SDS011;32318;48.858;8.252;2022-12-20T05:34:11;28.42;;;12.38;;
46597;SDS011;32318;48.858;8.252;2022-12-20T05:42:11;32.95;;;13.68;;
46597;SDS011;32318;48.858;8.252;2022-12-20T05:50:11;32.35;;;14.38;;
46597;SDS011;32318;48.858;8.252;2022-12-20T05:58:12;33.38;;;14.32;;
46597;SDS011;32318;48.858;8.252;2022-12-20T06:06:13;27.83;;;12.07;;
46597;SDS011;32318;48.858;8.252;2022-12-20T06:14:13;21.80;;;10.52;;
46597;SDS011;32318;48.858;8.252;2022-12-20T06:22:13;24.85;;;10.25;;
46597;SDS011;32318;48.858;8.252;2022-12-20T06:30:13;30.02;;;10.68;;
46597;SDS011;32318;48.858;8.252;2022-12-20T06:38:14;26.98;;;10.15;;
46597;SDS011;32318;48.858;8.252;2022-12-20T06:46:15;34.33;;;12.57;;
46597;SDS011;32318;48.858;8.252;2022-12-20T06:54:15;27.95;;;12.23;;
46597;SDS011;32318;48.858;8.252;2022-12-20T07:02:16;30.90;;;13.48;;
46597;SDS011;32318;48.858;8.252;2022-12-20T07:10:16;33.67;;;12.82;;
46597;SDS011;32318;48.858;8.252;2022-12-20T07:18:16;33.95;;;13.10;;
46597;SDS011;32318;48.858;8.252;2022-12-20T07:26:16;68.57;;;25.30;;
46597;SDS011;32318;48.858;8.252;2022-12-20T07:34:17;71.75;;;26.70;;
46597;SDS011;32318;48.858;8.252;2022-12-20T07:42:17;71.47;;;30.05;;
46597;SDS011;32318;48.858;8.252;2022-12-20T07:50:18;55.13;;;22.40;;
46597;SDS011;32318;48.858;8.252;2022-12-20T07:58:18;83.15;;;33.20;;
46597;SDS011;32318;48.858;8.252;2022-12-20T08:06:19;65.65;;;28.30;;
46597;SDS011;32318;48.858;8.252;2022-12-20T08:14:20;71.78;;;25.45;;
46597;SDS011;32318;48.858;8.252;2022-12-20T08:22:20;86.60;;;31.75;;
46597;SDS011;32318;48.858;8.252;2022-12-20T08:30:21;58.13;;;20.90;;
46597;SDS011;32318;48.858;8.252;2022-12-20T08:38:22;49.20;;;19.10;;
46597;SDS011;32318;48.858;8.252;2022-12-20T08:46:22;38.15;;;16.08;;
46597;SDS011;32318;48.858;8.252;2022-12-20T08:54:22;45.13;;;20.23;;
46597;SDS011;32318;48.858;8.252;2022-12-20T09:02:23;57.58;;;23.65;;
46597;SDS011;32318;48.858;8.252;2022-12-20T09:10:23;60.22;;;23.52;;
46597;SDS011;32318;48.858;8.252;2022-12-20T09:18:23;49.80;;;20.63;;
46597;SDS011;32318;48.858;8.252;2022-12-20T09:26:24;58.28;;;24.58;;
46597;SDS011;32318;48.858;8.252;2022-12-20T09:34:24;73.23;;;28.00;;
46597;SDS011;32318;48.858;8.252;2022-12-20T09:42:25;62.13;;;24.50;;
46597;SDS011;32318;48.858;8.252;2022-12-20T09:50:40;58.75;;;23.30;;
46597;SDS011;32318;48.858;8.252;2022-12-20T09:59:03;60.25;;;21.85;;
46597;SDS011;32318;48.858;8.252;2022-12-20T10:07:26;44.15;;;17.40;;
46597;SDS011;32318;48.858;8.252;2022-12-20T10:15:46;45.53;;;19.48;;
46597;SDS011;32318;48.858;8.252;2022-12-20T10:24:00;55.10;;;21.63;;
46597;SDS011;32318;48.858;8.252;2022-12-20T10:32:04;65.15;;;26.85;;
46597;SDS011;32318;48.858;8.252;2022-12-20T10:40:24;44.38;;;19.52;;
46597;SDS011;32318;48.858;8.252;2022-12-20T10:48:31;50.92;;;20.88;;
46597;SDS011;32318;48.858;8.252;2022-12-20T10:56:33;47.83;;;20.20;;
46597;SDS011;32318;48.858;8.252;2022-12-20T11:04:35;66.75;;;24.10;;
46597;SDS011;32318;48.858;8.252;2022-12-20T11:12:37;72.05;;;31.95;;
46597;SDS011;32318;48.858;8.252;2022-12-20T11:21:15;42.03;;;18.80;;
46597;SDS011;32318;48.858;8.252;2022-12-20T11:37:23;66.57;;;31.15;;
46597;SDS011;32318;48.858;8.252;2022-12-20T11:54:02;43.15;;;19.25;;
46597;SDS011;32318;48.858;8.252;2022-12-20T12:02:13;53.80;;;18.50;;
46597;SDS011;32318;48.858;8.252;2022-12-20T12:10:23;54.42;;;18.60;;
46597;SDS011;32318;48.858;8.252;2022-12-20T12:18:28;46.97;;;17.58;;
46597;SDS011;32318;48.858;8.252;2022-12-20T12:26:32;50.80;;;17.83;;
46597;SDS011;32318;48.858;8.252;2022-12-20T12:51:50;45.17;;;19.35;;
46597;SDS011;32318;48.858;8.252;2022-12-20T12:59:52;36.55;;;17.38;;
46597;SDS011;32318;48.858;8.252;2022-12-20T13:07:52;38.63;;;17.05;;
46597;SDS011;32318;48.858;8.252;2022-12-20T13:16:03;48.72;;;16.90;;
46597;SDS011;32318;48.858;8.252;2022-12-20T13:40:48;66.25;;;24.90;;
46597;SDS011;32318;48.858;8.252;2022-12-20T13:48:57;56.63;;;22.55;;
46597;SDS011;32318;48.858;8.252;2022-12-20T13:57:02;37.05;;;17.20;;
46597;SDS011;32318;48.858;8.252;2022-12-20T14:05:06;54.13;;;19.27;;
46597;SDS011;32318;48.858;8.252;2022-12-20T14:13:22;46.45;;;18.35;;
46597;SDS011;32318;48.858;8.252;2022-12-20T14:21:24;42.33;;;17.13;;
46597;SDS011;32318;48.858;8.252;2022-12-20T14:29:27;38.97;;;17.70;;
46597;SDS011;32318;48.858;8.252;2022-12-20T14:37:30;44.13;;;19.45;;
46597;SDS011;32318;48.858;8.252;2022-12-20T14:45:33;52.25;;;21.30;;
46597;SDS011;32318;48.858;8.252;2022-12-20T14:53:33;56.95;;;20.48;;
46597;SDS011;32318;48.858;8.252;2022-12-20T15:01:36;51.50;;;22.35;;
46597;SDS011;32318;48.858;8.252;2022-12-20T15:09:36;72.03;;;25.73;;
46597;SDS011;32318;48.858;8.252;2022-12-20T15:17:36;80.90;;;33.53;;
46597;SDS011;32318;48.858;8.252;2022-12-20T15:25:36;66.05;;;25.95;;
46597;SDS011;32318;48.858;8.252;2022-12-20T15:33:38;57.90;;;24.08;;
46597;SDS011;32318;48.858;8.252;2022-12-20T15:41:40;67.75;;;25.52;;
46597;SDS011;32318;48.858;8.252;2022-12-20T15:49:43;71.78;;;28.73;;
46597;SDS011;32318;48.858;8.252;2022-12-20T15:57:43;66.32;;;27.17;;
46597;SDS011;32318;48.858;8.252;2022-12-20T16:05:44;62.97;;;24.30;;
46597;SDS011;32318;48.858;8.252;2022-12-20T16:13:45;53.33;;;23.00;;
46597;SDS011;32318;48.858;8.252;2022-12-20T16:21:47;65.53;;;23.25;;
46597;SDS011;32318;48.858;8.252;2022-12-20T16:29:49;63.67;;;25.75;;
46597;SDS011;32318;48.858;8.252;2022-12-20T16:37:49;50.22;;;20.80;;
46597;SDS011;32318;48.858;8.252;2022-12-20T16:45:49;61.42;;;28.73;;
46597;SDS011;32318;48.858;8.252;2022-12-20T16:53:53;51.33;;;22.73;;
46597;SDS011;32318;48.858;8.252;2022-12-20T17:01:55;53.97;;;22.92;;
46597;SDS011;32318;48.858;8.252;2022-12-20T17:09:55;57.25;;;26.08;;
46597;SDS011;32318;48.858;8.252;2022-12-20T17:17:56;53.35;;;22.67;;
46597;SDS011;32318;48.858;8.252;2022-12-20T17:25:57;46.17;;;20.75;;
46597;SDS011;32318;48.858;8.252;2022-12-20T17:33:57;51.95;;;22.52;;
46597;SDS011;32318;48.858;8.252;2022-12-20T17:41:57;52.78;;;20.73;;
46597;SDS011;32318;48.858;8.252;2022-12-20T17:49:59;46.88;;;21.48;;
46597;SDS011;32318;48.858;8.252;2022-12-20T17:58:00;46.35;;;18.85;;
46597;SDS011;32318;48.858;8.252;2022-12-20T18:06:03;42.58;;;19.25;;
46597;SDS011;32318;48.858;8.252;2022-12-20T18:14:05;56.03;;;20.15;;
46597;SDS011;32318;48.858;8.252;2022-12-20T18:22:05;44.60;;;20.65;;
46597;SDS011;32318;48.858;8.252;2022-12-20T18:30:06;44.55;;;21.23;;
46597;SDS011;32318;48.858;8.252;2022-12-20T18:38:07;43.10;;;19.67;;
46597;SDS011;32318;48.858;8.252;2022-12-20T18:46:08;60.25;;;28.33;;
46597;SDS011;32318;48.858;8.252;2022-12-20T18:54:11;89.88;;;42.28;;
46597;SDS011;32318;48.858;8.252;2022-12-20T19:02:13;73.90;;;35.53;;
46597;SDS011;32318;48.858;8.252;2022-12-20T19:10:13;81.65;;;36.15;;
46597;SDS011;32318;48.858;8.252;2022-12-20T19:18:14;71.88;;;33.38;;
46597;SDS011;32318;48.858;8.252;2022-12-20T19:26:15;83.47;;;37.42;;
46597;SDS011;32318;48.858;8.252;2022-12-20T19:34:16;79.70;;;34.10;;
46597;SDS011;32318;48.858;8.252;2022-12-20T19:42:17;81.95;;;33.67;;
46597;SDS011;32318;48.858;8.252;2022-12-20T19:50:17;121.25;;;48.67;;
46597;SDS011;32318;48.858;8.252;2022-12-20T19:58:18;82.97;;;35.13;;
46597;SDS011;32318;48.858;8.252;2022-12-20T20:06:19;72.28;;;34.35;;
46597;SDS011;32318;48.858;8.252;2022-12-20T20:14:19;75.60;;;31.55;;
46597;SDS011;32318;48.858;8.252;2022-12-20T20:22:20;58.22;;;26.25;;
46597;SDS011;32318;48.858;8.252;2022-12-20T20:30:20;56.30;;;26.50;;
46597;SDS011;32318;48.858;8.252;2022-12-20T20:38:20;56.55;;;25.50;;
46597;SDS011;32318;48.858;8.252;2022-12-20T20:46:21;54.55;;;24.38;;
46597;SDS011;32318;48.858;8.252;2022-12-20T20:54:21;69.45;;;28.83;;
46597;SDS011;32318;48.858;8.252;2022-12-20T21:02:22;62.60;;;26.70;;
46597;SDS011;32318;48.858;8.252;2022-12-20T21:10:23;61.80;;;28.25;;
46597;SDS011;32318;48.858;8.252;2022-12-20T21:18:23;49.08;;;25.10;;
46597;SDS011;32318;48.858;8.252;2022-12-20T21:26:24;48.58;;;23.27;;
46597;SDS011;32318;48.858;8.252;2022-12-20T21:34:24;42.63;;;19.52;;
46597;SDS011;32318;48.858;8.252;2022-12-20T21:42:25;44.45;;;16.60;;
46597;SDS011;32318;48.858;8.252;2022-12-20T21:50:25;50.85;;;22.85;;
46597;SDS011;32318;48.858;8.252;2022-12-20T21:58:26;55.75;;;22.15;;
46597;SDS011;32318;48.858;8.252;2022-12-20T22:06:27;238.20;;;67.75;;
46597;SDS011;32318;48.858;8.252;2022-12-20T22:14:28;88.80;;;30.75;;
46597;SDS011;32318;48.858;8.252;2022-12-20T22:22:29;62.47;;;23.90;;
46597;SDS011;32318;48.858;8.252;2022-12-20T22:30:30;39.10;;;17.52;;
46597;SDS011;32318;48.858;8.252;2022-12-20T22:38:31;34.35;;;15.70;;
46597;SDS011;32318;48.858;8.252;2022-12-20T22:46:31;41.00;;;17.70;;
46597;SDS011;32318;48.858;8.252;2022-12-20T22:54:32;73.27;;;28.87;;
46597;SDS011;32318;48.858;8.252;2022-12-20T23:02:32;47.50;;;20.58;;
46597;SDS011;32318;48.858;8.252;2022-12-20T23:10:32;43.72;;;19.73;;
46597;SDS011;32318;48.858;8.252;2022-12-20T23:18:55;43.63;;;21.52;;
46597;SDS011;32318;48.858;8.252;2022-12-20T23:26:57;59.17;;;26.57;;
46597;SDS011;32318;48.858;8.252;2022-12-20T23:34:57;58.30;;;26.52;;
46597;SDS011;32318;48.858;8.252;2022-12-20T23:42:57;65.65;;;22.35;;
46597;SDS011;32318;48.858;8.252;2022-12-20T23:50:58;72.97;;;26.20;;
46597;SDS011;32318;48.858;8.252;2022-12-20T23:58:59;62.88;;;23.67;;
